createdAt,value
2022-11-13T00:00:43.349Z,2.30
2022-11-13T00:01:43.358Z,2.10
2022-11-13T00:02:43.409Z,2.20
2022-11-13T00:03:43.315Z,2.20
2022-11-13T00:04:43.304Z,2.40
2022-11-13T00:05:43.399Z,2.90
2022-11-13T00:06:43.331Z,2.80
2022-11-13T00:07:43.259Z,2.50
2022-11-13T00:08:43.262Z,3.00
2022-11-13T00:09:43.264Z,2.70
2022-11-13T00:10:43.240Z,2.50
2022-11-13T00:11:43.217Z,2.40
2022-11-13T00:12:43.205Z,2.60
2022-11-13T00:13:43.214Z,2.70
2022-11-13T00:14:43.191Z,2.90
2022-11-13T00:15:43.192Z,3.10
2022-11-13T00:16:43.155Z,2.80
2022-11-13T00:17:43.150Z,2.80
2022-11-13T00:18:43.141Z,2.80
2022-11-13T00:19:43.135Z,2.60
2022-11-13T00:20:43.154Z,3.20
2022-11-13T00:21:43.248Z,3.00
2022-11-13T00:22:43.118Z,3.30
2022-11-13T00:23:43.093Z,3.40
2022-11-13T00:24:43.081Z,3.20
2022-11-13T00:25:43.057Z,3.20
2022-11-13T00:26:43.077Z,2.90
2022-11-13T00:27:43.042Z,3.00
2022-11-13T00:28:43.033Z,2.40
2022-11-13T00:29:43.026Z,2.30
2022-11-13T00:30:43.017Z,2.10
2022-11-13T00:31:43.021Z,2.00
2022-11-13T00:32:42.986Z,2.30
2022-11-13T00:34:09.063Z,2.10
2022-11-13T00:34:48.336Z,2.10
2022-11-13T00:35:42.949Z,2.10
2022-11-13T00:36:42.976Z,3.20
2022-11-13T00:37:43.039Z,3.20
2022-11-13T00:38:42.916Z,4.60
2022-11-13T00:39:42.911Z,4.20
2022-11-13T00:40:42.897Z,3.70
2022-11-13T00:41:42.913Z,3.50
2022-11-13T00:42:42.872Z,3.90
2022-11-13T00:43:42.886Z,4.00
2022-11-13T00:44:42.883Z,3.90
2022-11-13T00:45:42.838Z,3.60
2022-11-13T00:46:42.838Z,3.80
2022-11-13T00:47:42.847Z,3.60
2022-11-13T00:48:42.845Z,3.40
2022-11-13T00:49:42.797Z,3.40
2022-11-13T00:50:42.782Z,3.20
2022-11-13T00:51:42.775Z,3.00
2022-11-13T00:52:42.790Z,3.20
2022-11-13T00:53:42.865Z,3.00
2022-11-13T00:54:42.737Z,2.90
2022-11-13T00:55:42.737Z,3.20
2022-11-13T00:56:42.726Z,3.00
2022-11-13T00:57:42.737Z,2.70
2022-11-13T00:58:42.705Z,2.60
2022-11-13T00:59:42.677Z,2.60
2022-11-13T01:00:42.668Z,2.80
2022-11-13T01:01:42.720Z,2.90
2022-11-13T01:02:42.647Z,2.90
2022-11-13T01:03:42.663Z,2.60
2022-11-13T01:04:42.645Z,2.80
2022-11-13T01:05:42.624Z,2.50
2022-11-13T01:06:42.649Z,2.40
2022-11-13T01:07:42.592Z,2.30
2022-11-13T01:08:42.614Z,2.40
2022-11-13T01:09:42.688Z,2.50
2022-11-13T01:10:42.566Z,2.10
2022-11-13T01:11:42.583Z,2.70
2022-11-13T01:12:42.537Z,2.30
2022-11-13T01:13:42.530Z,2.60
2022-11-13T01:14:42.526Z,2.50
2022-11-13T01:15:42.544Z,2.30
2022-11-13T01:16:42.490Z,2.00
2022-11-13T01:17:42.501Z,1.90
2022-11-13T01:18:42.467Z,2.00
2022-11-13T01:19:42.451Z,2.20
2022-11-13T01:20:42.476Z,2.20
2022-11-13T01:21:42.461Z,2.30
2022-11-13T01:22:42.429Z,1.80
2022-11-13T01:23:42.430Z,2.20
2022-11-13T01:24:42.400Z,2.40
2022-11-13T01:25:42.505Z,2.30
2022-11-13T01:26:42.383Z,2.20
2022-11-13T01:27:42.373Z,2.40
2022-11-13T01:28:42.384Z,2.50
2022-11-13T01:29:42.373Z,2.60
2022-11-13T01:30:42.336Z,2.30
2022-11-13T01:31:42.320Z,2.10
2022-11-13T01:32:42.332Z,2.50
2022-11-13T01:33:42.324Z,2.50
2022-11-13T01:34:42.299Z,2.50
2022-11-13T01:35:42.277Z,3.10
2022-11-13T01:36:42.275Z,2.50
2022-11-13T01:37:42.281Z,2.50
2022-11-13T01:38:42.254Z,2.40
2022-11-13T01:39:42.229Z,2.40
2022-11-13T01:40:42.225Z,2.60
2022-11-13T01:41:42.327Z,2.40
2022-11-13T01:42:42.258Z,2.80
2022-11-13T01:43:42.193Z,2.80
2022-11-13T01:44:42.189Z,2.60
2022-11-13T01:45:42.207Z,2.30
2022-11-13T01:46:42.158Z,2.40
2022-11-13T01:47:42.146Z,2.40
2022-11-13T01:48:42.131Z,2.20
2022-11-13T01:49:42.133Z,2.50
2022-11-13T01:50:42.108Z,2.40
2022-11-13T01:51:42.137Z,2.20
2022-11-13T01:52:42.099Z,2.70
2022-11-13T01:53:42.085Z,2.10
2022-11-13T01:54:42.062Z,2.60
2022-11-13T01:55:42.092Z,2.40
2022-11-13T01:56:42.044Z,2.30
2022-11-13T01:57:42.171Z,2.70
2022-11-13T01:58:42.020Z,2.60
2022-11-13T01:59:42.020Z,2.50
2022-11-13T02:00:42.004Z,2.30
2022-11-13T02:01:42.119Z,2.40
2022-11-13T02:02:42.006Z,2.70
2022-11-13T02:03:41.967Z,2.40
2022-11-13T02:04:41.958Z,2.50
2022-11-13T02:05:41.964Z,2.30
2022-11-13T02:06:41.964Z,2.50
2022-11-13T02:07:41.943Z,2.50
2022-11-13T02:08:41.933Z,2.60
2022-11-13T02:09:41.891Z,2.70
2022-11-13T02:10:41.884Z,2.20
2022-11-13T02:11:41.881Z,2.50
2022-11-13T02:12:41.870Z,2.50
2022-11-13T02:13:41.984Z,2.20
2022-11-13T02:14:41.934Z,2.50
2022-11-13T02:15:41.854Z,2.70
2022-11-13T02:16:41.823Z,2.70
2022-11-13T02:17:41.839Z,2.60
2022-11-13T02:18:41.825Z,3.00
2022-11-13T02:19:41.790Z,2.60
2022-11-13T02:20:41.782Z,2.80
2022-11-13T02:21:41.829Z,2.80
2022-11-13T02:22:41.788Z,2.60
2022-11-13T02:23:41.762Z,2.50
2022-11-13T02:24:45.089Z,2.70
2022-11-13T02:25:41.775Z,2.60
2022-11-13T02:26:41.711Z,2.40
2022-11-13T02:27:41.692Z,2.50
2022-11-13T02:28:41.685Z,2.60
2022-11-13T02:29:41.845Z,2.90
2022-11-13T02:30:41.668Z,3.10
2022-11-13T02:31:41.648Z,3.40
2022-11-13T02:32:41.645Z,3.20
2022-11-13T02:33:41.625Z,3.30
2022-11-13T02:34:41.629Z,3.10
2022-11-13T02:35:41.629Z,3.20
2022-11-13T02:36:41.638Z,3.20
2022-11-13T02:37:41.642Z,3.50
2022-11-13T02:38:41.605Z,3.30
2022-11-13T02:39:41.597Z,3.50
2022-11-13T02:40:41.589Z,3.30
2022-11-13T02:41:41.537Z,3.60
2022-11-13T02:42:41.534Z,3.90
2022-11-13T02:43:41.910Z,3.90
2022-11-13T02:44:41.559Z,4.10
2022-11-13T02:45:41.651Z,4.10
2022-11-13T02:46:41.676Z,4.00
2022-11-13T02:47:41.513Z,4.10
2022-11-13T02:48:41.459Z,3.60
2022-11-13T02:49:41.454Z,3.30
2022-11-13T02:50:41.484Z,3.10
2022-11-13T02:51:41.429Z,3.40
2022-11-13T02:52:41.475Z,3.40
2022-11-13T02:53:41.409Z,2.90
2022-11-13T02:54:41.435Z,2.90
2022-11-13T02:55:41.409Z,2.60
2022-11-13T02:56:41.407Z,2.80
2022-11-13T02:57:41.406Z,2.90
2022-11-13T02:58:41.367Z,3.30
2022-11-13T02:59:41.352Z,3.00
2022-11-13T03:00:41.374Z,2.70
2022-11-13T03:01:41.542Z,2.70
2022-11-13T03:02:41.336Z,2.40
2022-11-13T03:03:57.055Z,2.60
2022-11-13T03:05:10.796Z,2.60
2022-11-13T03:05:42.295Z,2.80
2022-11-13T03:06:41.281Z,2.70
2022-11-13T03:07:41.258Z,2.50
2022-11-13T03:08:41.287Z,2.60
2022-11-13T03:09:41.233Z,2.60
2022-11-13T03:10:41.237Z,2.30
2022-11-13T03:11:41.255Z,2.60
2022-11-13T03:12:41.197Z,2.60
2022-11-13T03:13:41.176Z,2.50
2022-11-13T03:14:41.250Z,2.00
2022-11-13T03:15:48.299Z,2.10
2022-11-13T03:16:41.153Z,2.10
2022-11-13T03:17:41.270Z,2.20
2022-11-13T03:18:41.178Z,2.30
2022-11-13T03:19:41.153Z,2.20
2022-11-13T03:20:41.165Z,2.10
2022-11-13T03:21:41.107Z,2.20
2022-11-13T03:22:41.084Z,2.00
2022-11-13T03:23:41.100Z,2.20
2022-11-13T03:24:41.059Z,2.00
2022-11-13T03:25:41.095Z,2.10
2022-11-13T03:26:41.066Z,2.00
2022-11-13T03:27:41.068Z,2.10
2022-11-13T03:28:41.035Z,2.20
2022-11-13T03:29:41.004Z,2.00
2022-11-13T03:30:41.032Z,2.10
2022-11-13T03:31:41.007Z,2.20
2022-11-13T03:32:40.975Z,2.10
2022-11-13T03:33:41.066Z,2.10
2022-11-13T03:34:40.972Z,2.00
2022-11-13T03:35:46.531Z,1.90
2022-11-13T03:36:41.944Z,2.20
2022-11-13T03:37:40.954Z,1.60
2022-11-13T03:38:40.911Z,2.30
2022-11-13T03:42:00.359Z,1.90
2022-11-13T03:43:00.336Z,1.90
2022-11-13T03:44:00.336Z,1.90
2022-11-13T03:45:00.320Z,1.90
2022-11-13T03:46:00.717Z,2.10
2022-11-13T03:47:00.315Z,2.00
2022-11-13T03:48:00.279Z,2.30
2022-11-13T03:49:00.377Z,1.80
2022-11-13T03:50:00.266Z,2.00
2022-11-13T03:51:00.283Z,1.90
2022-11-13T03:52:00.242Z,2.50
2022-11-13T03:53:00.227Z,2.10
2022-11-13T03:54:00.226Z,1.70
2022-11-13T03:55:00.220Z,2.00
2022-11-13T03:56:00.229Z,2.20
2022-11-13T03:57:00.178Z,2.00
2022-11-13T03:58:00.182Z,1.70
2022-11-13T03:59:00.211Z,2.20
2022-11-13T04:00:00.170Z,2.00
2022-11-13T04:01:00.173Z,2.00
2022-11-13T04:02:00.223Z,2.00
2022-11-13T04:03:00.113Z,2.00
2022-11-13T04:04:00.149Z,2.10
2022-11-13T04:05:00.212Z,1.90
2022-11-13T04:06:00.127Z,1.90
2022-11-13T04:07:00.171Z,1.90
2022-11-13T04:08:00.071Z,1.90
2022-11-13T04:09:00.061Z,2.10
2022-11-13T04:10:00.050Z,2.10
2022-11-13T04:11:00.068Z,2.10
2022-11-13T04:12:00.009Z,2.20
2022-11-13T04:13:00.086Z,2.10
2022-11-13T04:14:00.131Z,2.30
2022-11-13T04:14:59.977Z,2.30
2022-11-13T04:15:59.966Z,2.30
2022-11-13T04:16:59.962Z,1.90
2022-11-13T04:17:59.951Z,2.10
2022-11-13T04:18:59.959Z,2.10
2022-11-13T04:19:59.935Z,2.30
2022-11-13T04:21:00.036Z,2.30
2022-11-13T04:21:59.900Z,2.40
2022-11-13T04:22:59.958Z,2.10
2022-11-13T04:23:59.913Z,2.30
2022-11-13T04:24:59.863Z,2.30
2022-11-13T04:25:59.885Z,2.20
2022-11-13T04:26:59.870Z,2.30
2022-11-13T04:27:59.844Z,2.00
2022-11-13T04:28:59.822Z,2.20
2022-11-13T04:29:59.839Z,2.30
2022-11-13T04:30:59.809Z,2.30
2022-11-13T04:31:59.846Z,2.20
2022-11-13T04:32:59.849Z,2.30
2022-11-13T04:33:59.834Z,2.40
2022-11-13T04:34:59.761Z,2.30
2022-11-13T04:35:59.767Z,2.10
2022-11-13T04:36:59.931Z,2.00
2022-11-13T04:37:59.740Z,2.40
2022-11-13T04:38:59.728Z,2.60
2022-11-13T04:39:59.706Z,2.40
2022-11-13T04:40:59.709Z,2.80
2022-11-13T04:41:59.680Z,2.20
2022-11-13T04:42:59.667Z,2.10
2022-11-13T04:43:59.670Z,2.40
2022-11-13T04:44:59.653Z,2.60
2022-11-13T04:45:59.676Z,2.40
2022-11-13T04:47:00.623Z,2.30
2022-11-13T04:47:59.615Z,2.50
2022-11-13T04:48:59.623Z,2.40
2022-11-13T04:49:59.599Z,2.40
2022-11-13T04:50:59.651Z,2.30
2022-11-13T04:51:59.567Z,2.20
2022-11-13T04:52:59.698Z,2.30
2022-11-13T04:53:59.547Z,2.10
2022-11-13T04:54:59.546Z,2.30
2022-11-13T04:55:59.566Z,2.10
2022-11-13T04:56:59.672Z,1.80
2022-11-13T04:57:59.510Z,2.00
2022-11-13T04:58:59.554Z,2.20
2022-11-13T04:59:59.489Z,2.30
2022-11-13T05:00:59.475Z,2.50
2022-11-13T05:01:59.533Z,2.20
2022-11-13T05:02:59.462Z,2.20
2022-11-13T05:03:59.438Z,1.90
2022-11-13T05:05:04.639Z,2.20
2022-11-13T05:05:59.414Z,2.10
2022-11-13T05:06:59.497Z,2.50
2022-11-13T05:07:59.419Z,2.30
2022-11-13T05:08:59.498Z,2.40
2022-11-13T05:09:59.370Z,2.50
2022-11-13T05:10:59.376Z,2.20
2022-11-13T05:11:59.376Z,2.30
2022-11-13T05:12:59.391Z,2.10
2022-11-13T05:15:47.332Z,2.30
2022-11-13T05:16:10.052Z,2.20
2022-11-13T05:17:10.051Z,2.60
2022-11-13T05:18:10.026Z,2.40
2022-11-13T05:19:10.010Z,2.30
2022-11-13T05:20:09.998Z,2.40
2022-11-13T05:21:09.988Z,2.20
2022-11-13T05:22:10.008Z,2.50
2022-11-13T05:23:09.977Z,2.20
2022-11-13T05:24:10.091Z,2.40
2022-11-13T05:25:09.939Z,2.40
2022-11-13T05:26:09.932Z,2.30
2022-11-13T05:27:14.296Z,2.30
2022-11-13T05:28:10.918Z,2.30
2022-11-13T05:29:09.903Z,2.50
2022-11-13T05:30:09.966Z,2.70
2022-11-13T05:31:09.876Z,2.30
2022-11-13T05:32:09.860Z,2.10
2022-11-13T05:33:09.851Z,2.00
2022-11-13T05:34:09.876Z,2.10
2022-11-13T05:35:09.875Z,2.10
2022-11-13T05:36:09.825Z,2.40
2022-11-13T05:37:09.806Z,2.20
2022-11-13T05:38:09.795Z,2.80
2022-11-13T05:39:09.793Z,2.60
2022-11-13T05:40:09.920Z,2.60
2022-11-13T05:41:09.797Z,2.40
2022-11-13T05:42:09.786Z,2.50
2022-11-13T05:43:09.742Z,2.70
2022-11-13T05:44:09.732Z,2.60
2022-11-13T05:45:09.743Z,2.50
2022-11-13T05:46:09.728Z,3.10
2022-11-13T05:47:09.724Z,2.70
2022-11-13T05:48:09.689Z,2.70
2022-11-13T05:49:09.673Z,2.90
2022-11-13T05:50:09.700Z,2.70
2022-11-13T05:51:09.658Z,2.90
2022-11-13T05:52:09.676Z,2.70
2022-11-13T05:53:09.626Z,2.50
2022-11-13T05:54:09.630Z,2.50
2022-11-13T05:55:09.612Z,2.70
2022-11-13T05:56:09.718Z,2.70
2022-11-13T05:57:09.625Z,2.70
2022-11-13T05:58:09.583Z,2.90
2022-11-13T05:59:09.559Z,2.60
2022-11-13T06:00:09.549Z,2.60
2022-11-13T06:01:09.545Z,2.40
2022-11-13T06:02:09.556Z,2.50
2022-11-13T06:03:09.557Z,2.30
2022-11-13T06:04:09.520Z,2.70
2022-11-13T06:05:09.511Z,2.60
2022-11-13T06:06:09.484Z,2.40
2022-11-13T06:07:09.517Z,2.60
2022-11-13T06:08:09.457Z,2.60
2022-11-13T06:09:09.486Z,2.30
2022-11-13T06:10:09.477Z,2.50
2022-11-13T06:11:09.429Z,2.40
2022-11-13T06:12:09.566Z,2.90
2022-11-13T06:13:09.423Z,2.80
2022-11-13T06:14:09.392Z,2.70
2022-11-13T06:15:09.425Z,3.10
2022-11-13T06:16:09.375Z,3.40
2022-11-13T06:17:09.372Z,3.20
2022-11-13T06:18:09.352Z,3.40
2022-11-13T06:19:09.358Z,3.80
2022-11-13T06:20:09.333Z,3.50
2022-11-13T06:21:09.324Z,3.50
2022-11-13T06:22:09.307Z,3.00
2022-11-13T06:23:09.296Z,3.10
2022-11-13T06:24:09.288Z,3.10
2022-11-13T06:25:09.297Z,3.60
2022-11-13T06:26:09.303Z,3.30
2022-11-13T06:27:09.257Z,3.80
2022-11-13T06:28:09.350Z,3.90
2022-11-13T06:29:09.226Z,4.20
2022-11-13T06:30:09.239Z,4.30
2022-11-13T06:31:09.204Z,3.60
2022-11-13T06:32:09.219Z,3.80
2022-11-13T06:33:09.228Z,4.00
2022-11-13T06:34:09.176Z,4.00
2022-11-13T06:35:09.161Z,4.00
2022-11-13T06:36:09.172Z,4.40
2022-11-13T06:37:09.166Z,4.00
2022-11-13T06:38:09.142Z,3.60
2022-11-13T06:39:09.300Z,3.90
2022-11-13T06:40:09.106Z,3.90
2022-11-13T06:41:09.090Z,3.80
2022-11-13T06:42:09.086Z,3.80
2022-11-13T06:43:09.137Z,3.40
2022-11-13T06:44:09.193Z,3.20
2022-11-13T06:45:09.090Z,3.20
2022-11-13T06:46:09.050Z,3.50
2022-11-13T06:47:09.045Z,3.30
2022-11-13T06:48:09.058Z,3.10
2022-11-13T06:49:09.024Z,2.90
2022-11-13T06:50:09.022Z,2.90
2022-11-13T06:51:08.997Z,2.90
2022-11-13T06:52:08.978Z,3.40
2022-11-13T06:53:08.964Z,3.10
2022-11-13T06:54:08.984Z,3.20
2022-11-13T06:55:08.936Z,3.60
2022-11-13T06:56:09.063Z,3.10
2022-11-13T06:57:08.955Z,3.40
2022-11-13T06:58:08.946Z,3.10
2022-11-13T06:59:08.920Z,3.40
2022-11-13T07:00:08.992Z,3.40
2022-11-13T07:01:09.018Z,3.50
2022-11-13T07:02:08.886Z,3.40
2022-11-13T07:03:08.851Z,3.20
2022-11-13T07:04:08.838Z,3.00
2022-11-13T07:05:08.829Z,3.50
2022-11-13T07:06:08.850Z,3.10
2022-11-13T07:07:08.840Z,3.00
2022-11-13T07:08:08.791Z,2.90
2022-11-13T07:09:08.778Z,2.80
2022-11-13T07:10:08.785Z,2.90
2022-11-13T07:11:08.793Z,2.80
2022-11-13T07:12:08.748Z,2.80
2022-11-13T07:13:08.752Z,2.60
2022-11-13T07:14:08.846Z,3.00
2022-11-13T07:15:08.742Z,3.20
2022-11-13T07:16:16.356Z,2.80
2022-11-13T07:17:10.656Z,3.20
2022-11-13T07:18:08.683Z,2.90
2022-11-13T07:19:08.702Z,3.00
2022-11-13T07:20:08.672Z,2.80
2022-11-13T07:21:08.685Z,3.30
2022-11-13T07:22:08.638Z,3.10
2022-11-13T07:23:08.622Z,3.10
2022-11-13T07:24:11.541Z,3.40
2022-11-13T07:25:08.633Z,3.50
2022-11-13T07:26:08.591Z,3.30
2022-11-13T07:27:08.586Z,3.70
2022-11-13T07:28:08.577Z,3.40
2022-11-13T07:29:08.562Z,4.30
2022-11-13T07:30:08.544Z,3.40
2022-11-13T07:31:08.574Z,3.80
2022-11-13T07:32:08.640Z,4.10
2022-11-13T07:33:08.534Z,4.20
2022-11-13T07:34:08.503Z,4.40
2022-11-13T07:35:08.516Z,5.20
2022-11-13T07:36:08.498Z,5.60
2022-11-13T07:37:08.468Z,5.50
2022-11-13T07:38:08.457Z,5.80
2022-11-13T07:39:08.559Z,6.00
2022-11-13T07:40:08.468Z,7.00
2022-11-13T07:41:08.428Z,7.00
2022-11-13T07:42:08.419Z,6.90
2022-11-13T07:43:08.408Z,7.90
2022-11-13T07:44:09.593Z,6.90
2022-11-13T07:45:08.407Z,6.50
2022-11-13T07:46:08.416Z,6.00
2022-11-13T07:47:08.370Z,6.30
2022-11-13T07:48:08.456Z,6.00
2022-11-13T07:49:08.355Z,6.70
2022-11-13T07:50:10.885Z,6.10
2022-11-13T07:51:08.311Z,6.30
2022-11-13T07:52:08.339Z,6.50
2022-11-13T07:53:08.319Z,6.80
2022-11-13T07:54:08.278Z,6.60
2022-11-13T07:55:08.274Z,6.60
2022-11-13T07:56:08.283Z,6.80
2022-11-13T07:57:08.274Z,7.20
2022-11-13T07:58:08.234Z,7.00
2022-11-13T07:59:08.223Z,7.00
2022-11-13T08:00:08.251Z,7.10
2022-11-13T08:01:08.221Z,6.70
2022-11-13T08:02:08.190Z,7.20
2022-11-13T08:03:08.232Z,7.50
2022-11-13T08:04:08.277Z,8.20
2022-11-13T08:05:08.162Z,9.80
2022-11-13T08:06:08.152Z,10.20
2022-11-13T08:07:08.168Z,11.20
2022-11-13T08:08:08.154Z,10.90
2022-11-13T08:09:08.117Z,11.70
2022-11-13T08:10:08.125Z,11.30
2022-11-13T08:11:08.092Z,10.30
2022-11-13T08:12:08.081Z,10.90
2022-11-13T08:13:08.087Z,12.30
2022-11-13T08:14:08.063Z,13.50
2022-11-13T08:15:12.206Z,14.40
2022-11-13T08:16:09.100Z,15.20
2022-11-13T08:17:08.020Z,14.30
2022-11-13T08:18:08.034Z,12.30
2022-11-13T08:19:08.012Z,12.70
2022-11-13T08:20:08.098Z,10.90
2022-11-13T08:21:13.472Z,11.20
2022-11-13T08:22:08.968Z,10.40
2022-11-13T08:23:07.988Z,10.20
2022-11-13T08:24:07.951Z,10.70
2022-11-13T08:25:07.933Z,10.50
2022-11-13T08:26:07.926Z,10.40
2022-11-13T08:27:07.918Z,10.20
2022-11-13T08:28:12.847Z,10.60
2022-11-13T08:29:07.928Z,9.80
2022-11-13T08:30:07.877Z,9.80
2022-11-13T08:31:07.864Z,10.00
2022-11-13T08:32:07.866Z,10.20
2022-11-13T08:33:07.842Z,10.50
2022-11-13T08:34:07.842Z,10.20
2022-11-13T08:35:07.843Z,10.50
2022-11-13T08:36:07.921Z,10.50
2022-11-13T08:37:07.827Z,10.50
2022-11-13T08:38:07.802Z,10.30
2022-11-13T08:39:07.779Z,9.70
2022-11-13T08:40:07.767Z,9.80
2022-11-13T08:41:09.590Z,10.90
2022-11-13T08:42:07.773Z,10.20
2022-11-13T08:43:07.751Z,10.00
2022-11-13T08:44:07.746Z,10.00
2022-11-13T08:45:07.705Z,9.50
2022-11-13T08:46:07.725Z,9.30
2022-11-13T08:47:07.691Z,9.20
2022-11-13T08:48:07.683Z,10.00
2022-11-13T08:49:07.664Z,10.30
2022-11-13T08:50:07.676Z,10.10
2022-11-13T08:51:07.654Z,10.10
2022-11-13T08:52:07.744Z,10.30
2022-11-13T08:53:07.628Z,10.60
2022-11-13T08:54:07.610Z,10.40
2022-11-13T08:55:07.651Z,10.60
2022-11-13T08:56:07.618Z,10.80
2022-11-13T08:57:07.574Z,10.70
2022-11-13T08:58:07.624Z,10.80
2022-11-13T08:59:07.553Z,10.80
2022-11-13T09:00:07.541Z,10.60
2022-11-13T09:01:07.533Z,10.20
2022-11-13T09:02:07.562Z,9.50
2022-11-13T09:03:07.653Z,10.20
2022-11-13T09:04:07.568Z,10.40
2022-11-13T09:05:07.494Z,10.10
2022-11-13T09:06:07.575Z,9.70
2022-11-13T09:07:07.655Z,9.50
2022-11-13T09:08:07.595Z,9.60
2022-11-13T09:09:07.450Z,9.70
2022-11-13T09:10:07.605Z,9.60
2022-11-13T09:11:07.453Z,10.00
2022-11-13T09:12:07.422Z,9.90
2022-11-13T09:13:07.420Z,9.40
2022-11-13T09:14:07.410Z,10.00
2022-11-13T09:15:07.379Z,10.10
2022-11-13T09:16:07.372Z,10.60
2022-11-13T09:17:07.393Z,11.40
2022-11-13T09:18:07.372Z,10.40
2022-11-13T09:19:07.328Z,10.00
2022-11-13T09:20:09.957Z,10.70
2022-11-13T09:21:08.312Z,10.40
2022-11-13T09:22:07.324Z,10.10
2022-11-13T09:23:07.307Z,10.40
2022-11-13T09:24:07.402Z,10.60
2022-11-13T09:25:07.272Z,10.60
2022-11-13T09:26:07.258Z,11.10
2022-11-13T09:27:07.243Z,10.60
2022-11-13T09:28:07.256Z,10.40
2022-11-13T09:29:07.275Z,10.00
2022-11-13T09:30:07.208Z,9.80
2022-11-13T09:31:07.202Z,10.00
2022-11-13T09:32:07.188Z,10.00
2022-11-13T09:33:07.194Z,9.90
2022-11-13T09:34:07.159Z,10.60
2022-11-13T09:35:07.159Z,10.10
2022-11-13T09:36:07.169Z,10.20
2022-11-13T09:37:07.128Z,10.00
2022-11-13T09:38:11.072Z,10.70
2022-11-13T09:39:07.138Z,10.50
2022-11-13T09:40:07.245Z,9.80
2022-11-13T09:41:07.079Z,10.30
2022-11-13T09:42:07.100Z,10.00
2022-11-13T09:43:07.064Z,10.00
2022-11-13T09:44:07.063Z,9.70
2022-11-13T09:45:07.034Z,9.00
2022-11-13T09:46:07.044Z,9.20
2022-11-13T09:47:07.042Z,9.30
2022-11-13T09:48:07.019Z,9.50
2022-11-13T09:49:06.997Z,9.30
2022-11-13T09:50:07.000Z,9.80
2022-11-13T09:51:06.965Z,9.20
2022-11-13T09:52:07.008Z,9.30
2022-11-13T09:53:06.980Z,9.70
2022-11-13T09:54:06.939Z,9.00
2022-11-13T09:55:06.923Z,9.10
2022-11-13T09:56:07.053Z,8.80
2022-11-13T09:57:06.903Z,9.00
2022-11-13T09:58:06.904Z,9.70
2022-11-13T09:59:06.903Z,8.80
2022-11-13T10:00:06.876Z,8.50
2022-11-13T10:01:06.948Z,9.00
2022-11-13T10:02:06.845Z,8.70
2022-11-13T10:03:06.831Z,8.80
2022-11-13T10:04:08.880Z,8.90
2022-11-13T10:05:06.813Z,8.10
2022-11-13T10:06:06.821Z,8.90
2022-11-13T10:07:06.802Z,8.30
2022-11-13T10:08:06.783Z,8.20
2022-11-13T10:09:06.796Z,8.30
2022-11-13T10:10:06.775Z,8.00
2022-11-13T10:11:06.771Z,7.80
2022-11-13T10:12:06.898Z,7.70
2022-11-13T10:13:06.726Z,7.80
2022-11-13T10:14:06.717Z,7.70
2022-11-13T10:15:06.766Z,7.60
2022-11-13T10:16:06.742Z,7.80
2022-11-13T10:17:06.681Z,7.30
2022-11-13T10:18:06.672Z,7.60
2022-11-13T10:19:06.659Z,7.50
2022-11-13T10:20:06.683Z,8.40
2022-11-13T10:21:09.578Z,7.30
2022-11-13T10:22:31.436Z,7.80
2022-11-13T10:23:07.626Z,7.70
2022-11-13T10:24:10.443Z,8.70
2022-11-13T10:25:07.596Z,8.50
2022-11-13T10:26:06.584Z,8.50
2022-11-13T10:27:06.591Z,8.40
2022-11-13T10:28:27.975Z,8.00
2022-11-13T10:29:07.597Z,7.40
2022-11-13T10:30:06.618Z,7.90
2022-11-13T10:31:06.556Z,8.10
2022-11-13T10:32:06.512Z,8.10
2022-11-13T10:33:06.534Z,8.40
2022-11-13T10:34:06.492Z,7.80
2022-11-13T10:35:06.469Z,7.30
2022-11-13T10:36:06.652Z,8.10
2022-11-13T10:37:06.471Z,7.40
2022-11-13T10:38:08.535Z,8.10
2022-11-13T10:39:06.443Z,8.10
2022-11-13T10:40:06.411Z,8.80
2022-11-13T10:41:06.400Z,8.10
2022-11-13T10:42:06.388Z,8.20
2022-11-13T10:43:06.416Z,8.10
2022-11-13T10:44:06.518Z,9.10
2022-11-13T10:45:12.043Z,8.40
2022-11-13T10:46:06.350Z,8.50
2022-11-13T10:47:06.362Z,8.10
2022-11-13T10:48:06.334Z,8.20
2022-11-13T10:49:06.319Z,7.90
2022-11-13T10:50:06.333Z,7.80
2022-11-13T10:51:06.286Z,7.90
2022-11-13T10:52:11.365Z,8.00
2022-11-13T10:53:07.284Z,8.40
2022-11-13T10:54:06.261Z,7.60
2022-11-13T10:55:06.256Z,7.50
2022-11-13T10:56:06.239Z,7.80
2022-11-13T10:57:06.333Z,7.70
2022-11-13T10:58:06.276Z,7.50
2022-11-13T10:59:06.193Z,7.40
2022-11-13T11:00:06.303Z,8.00
2022-11-13T11:01:06.216Z,8.00
2022-11-13T11:02:06.167Z,7.80
2022-11-13T11:03:06.181Z,7.60
2022-11-13T11:04:06.139Z,7.70
2022-11-13T11:05:06.130Z,7.00
2022-11-13T11:06:06.124Z,7.20
2022-11-13T11:07:19.684Z,7.10
2022-11-13T11:08:07.144Z,7.00
2022-11-13T11:09:06.088Z,6.70
2022-11-13T11:10:06.082Z,6.50
2022-11-13T11:11:06.062Z,6.70
2022-11-13T11:12:06.062Z,6.50
2022-11-13T11:13:06.070Z,6.30
2022-11-13T11:15:16.946Z,5.60
2022-11-13T11:16:16.731Z,6.00
2022-11-13T11:17:16.736Z,6.10
2022-11-13T11:18:16.703Z,6.10
2022-11-13T11:19:16.691Z,6.00
2022-11-13T11:20:16.787Z,6.20
2022-11-13T11:21:17.732Z,5.70
2022-11-13T11:22:16.680Z,5.90
2022-11-13T11:23:16.682Z,5.60
2022-11-13T11:24:16.712Z,6.10
2022-11-13T11:25:16.665Z,5.80
2022-11-13T11:26:16.785Z,5.50
2022-11-13T11:27:16.717Z,5.70
2022-11-13T11:28:16.603Z,5.60
2022-11-13T11:29:16.609Z,5.50
2022-11-13T11:30:16.803Z,5.50
2022-11-13T11:31:16.698Z,5.60
2022-11-13T11:32:16.614Z,6.50
2022-11-13T11:33:16.617Z,6.40
2022-11-13T11:34:16.568Z,5.20
2022-11-13T11:35:16.550Z,5.10
2022-11-13T11:36:16.538Z,5.50
2022-11-13T11:37:16.530Z,5.60
2022-11-13T11:38:16.482Z,5.60
2022-11-13T11:39:16.476Z,5.70
2022-11-13T11:40:16.491Z,5.60
2022-11-13T11:41:17.152Z,5.80
2022-11-13T11:42:16.463Z,5.40
2022-11-13T11:43:16.433Z,5.40
2022-11-13T11:44:16.477Z,5.60
2022-11-13T11:45:16.439Z,5.50
2022-11-13T11:46:16.416Z,4.60
2022-11-13T11:47:16.492Z,4.70
2022-11-13T11:48:16.427Z,5.30
2022-11-13T11:49:16.383Z,5.70
2022-11-13T11:50:16.368Z,5.40
2022-11-13T11:51:16.333Z,5.20
2022-11-13T11:52:16.404Z,5.30
2022-11-13T11:53:16.337Z,5.60
2022-11-13T11:54:16.337Z,4.90
2022-11-13T11:55:16.293Z,5.60
2022-11-13T11:56:16.278Z,4.90
2022-11-13T11:57:16.350Z,5.50
2022-11-13T11:58:16.267Z,4.40
2022-11-13T11:59:16.333Z,4.90
2022-11-13T12:00:16.235Z,5.00
2022-11-13T12:01:16.229Z,5.40
2022-11-13T12:02:16.237Z,5.20
2022-11-13T12:03:16.312Z,5.40
2022-11-13T12:04:16.199Z,6.10
2022-11-13T12:05:19.941Z,6.10
2022-11-13T12:06:16.199Z,6.20
2022-11-13T12:07:16.272Z,6.50
2022-11-13T12:08:16.171Z,7.20
2022-11-13T12:09:16.424Z,7.10
2022-11-13T12:10:16.140Z,7.50
2022-11-13T12:11:16.151Z,7.70
2022-11-13T12:12:16.132Z,7.10
2022-11-13T12:13:16.107Z,7.30
2022-11-13T12:14:16.202Z,7.50
2022-11-13T12:15:16.156Z,7.20
2022-11-13T12:16:19.860Z,6.40
2022-11-13T12:17:17.413Z,6.20
2022-11-13T12:18:16.068Z,6.70
2022-11-13T12:19:16.161Z,6.70
2022-11-13T12:20:16.041Z,6.60
2022-11-13T12:21:16.010Z,6.60
2022-11-13T12:22:16.046Z,6.80
2022-11-13T12:23:15.996Z,6.70
2022-11-13T12:24:15.972Z,6.30
2022-11-13T12:25:15.975Z,6.90
2022-11-13T12:26:15.967Z,6.80
2022-11-13T12:27:15.933Z,6.30
2022-11-13T12:28:15.930Z,6.30
2022-11-13T12:29:16.000Z,6.90
2022-11-13T12:30:15.908Z,7.80
2022-11-13T12:31:15.909Z,6.40
2022-11-13T12:32:15.887Z,6.50
2022-11-13T12:33:15.867Z,6.40
2022-11-13T12:34:15.877Z,6.50
2022-11-13T12:35:15.955Z,6.40
2022-11-13T12:36:15.839Z,6.30
2022-11-13T12:37:15.848Z,6.20
2022-11-13T12:38:15.819Z,6.20
2022-11-13T12:39:15.808Z,6.20
2022-11-13T12:40:15.806Z,5.80
2022-11-13T12:41:15.799Z,6.00
2022-11-13T12:42:15.780Z,5.90
2022-11-13T12:43:15.761Z,6.20
2022-11-13T12:44:15.743Z,6.20
2022-11-13T12:45:15.734Z,6.40
2022-11-13T12:46:15.747Z,6.50
2022-11-13T12:47:15.712Z,5.70
2022-11-13T12:48:15.703Z,6.50
2022-11-13T12:49:15.696Z,6.60
2022-11-13T12:50:15.682Z,7.10
2022-11-13T12:51:15.804Z,6.40
2022-11-13T12:52:15.656Z,5.90
2022-11-13T12:53:15.652Z,6.20
2022-11-13T12:54:15.651Z,6.80
2022-11-13T12:55:15.654Z,5.90
2022-11-13T12:56:15.635Z,6.20
2022-11-13T12:57:15.601Z,6.20
2022-11-13T12:58:15.587Z,6.20
2022-11-13T12:59:30.424Z,6.40
2022-11-13T13:00:16.586Z,6.40
2022-11-13T13:01:15.672Z,6.10
2022-11-13T13:02:15.548Z,6.10
2022-11-13T13:03:15.542Z,5.80
2022-11-13T13:04:15.531Z,6.30
2022-11-13T13:05:15.539Z,5.80
2022-11-13T13:06:15.505Z,6.10
2022-11-13T13:07:15.688Z,6.30
2022-11-13T13:08:15.483Z,6.40
2022-11-13T13:09:15.464Z,6.40
2022-11-13T13:10:15.503Z,6.50
2022-11-13T13:11:15.455Z,6.30
2022-11-13T13:12:15.503Z,6.30
2022-11-13T13:13:19.508Z,6.30
2022-11-13T13:14:16.411Z,6.00
2022-11-13T13:15:15.399Z,6.10
2022-11-13T13:16:15.389Z,6.30
2022-11-13T13:17:15.407Z,6.10
2022-11-13T13:18:15.369Z,5.70
2022-11-13T13:19:15.379Z,5.60
2022-11-13T13:20:15.353Z,6.00